Nordholz Airport ETMN

Flugplatz Daten

Name: Nordholz Airport

Ident: ETMN

Lat: 53,7677002

Long: 8,658499718

Platzhöhe: 74 ft

IataCode: NDZ

City:

Metar

2022/08/10 19:20
ETMN 101920Z 02005KT 9999 FEW310 19/14 Q1025 BLU+BLU+

Taf

2022/06/14 14:25
TAF ETMN 141316Z 1414/1514 31008KT 9999 NSW FEW030 SCT160
Gewünschte Webcam nicht vorhanden? Dann fügen Sie eine hinzu. Sie wird dann so schnell wie möglich freigeschaltet
Url: Title: